Time;durP1;ratioP1;P1;durP2;ratioP2;P2;SDS_P1;SDS_P2;PMS_P1;PMS_P2;Temp;Humidity;BMP_temperature;BMP_pressure;BME280_temperature;BME280_humidity;BME280_pressure;Samples;Min_cycle;Max_cycle;Signal;HPM_P1;HPM_P2
2022/05/18 00:02:00;;;;;;;;;3.75;3.75;;;;;;;;5028108;28;45428;-64
2022/05/18 00:04:29;;;;;;;;;5.00;5.00;;;;;;;;5032482;28;46443;-65
2022/05/18 00:06:54;;;;;;;;;4.50;4.50;;;;;;;;5032857;28;45731;-63
2022/05/18 00:09:19;;;;;;;;;4.50;2.75;;;;;;;;5031061;28;45524;-65
2022/05/18 00:11:44;;;;;;;;;4.75;4.75;;;;;;;;5033768;28;45416;-64
2022/05/18 00:14:10;;;;;;;;;7.00;4.75;;;;;;;;5032469;28;46790;-64
2022/05/18 00:16:35;;;;;;;;;4.00;4.00;;;;;;;;5032632;28;45531;-65
2022/05/18 00:19:01;;;;;;;;;4.75;4.00;;;;;;;;5032908;28;45614;-64
2022/05/18 00:21:26;;;;;;;;;4.50;4.50;;;;;;;;5031978;28;45425;-65
2022/05/18 00:23:51;;;;;;;;;5.25;5.25;;;;;;;;5033414;28;45726;-65
2022/05/18 00:26:17;;;;;;;;;6.00;5.00;;;;;;;;5032447;28;45436;-64
2022/05/18 00:28:42;;;;;;;;;6.00;6.00;;;;;;;;5031057;28;45720;-64
2022/05/18 00:31:07;;;;;;;;;6.50;6.50;;;;;;;;5031263;28;45724;-64
2022/05/18 00:33:32;;;;;;;;;6.75;6.75;;;;;;;;5031036;28;45681;-66
2022/05/18 00:35:57;;;;;;;;;5.00;5.00;;;;;;;;5029784;28;45521;-65
2022/05/18 00:38:23;;;;;;;;;7.25;7.00;;;;;;;;5032037;28;45408;-65
2022/05/18 00:40:49;;;;;;;;;6.25;6.25;;;;;;;;5030852;28;45555;-65
2022/05/18 00:43:30;;;;;;;;;8.00;6.75;;;;;;;;5030368;28;46152;-66
2022/05/18 00:45:55;;;;;;;;;5.00;5.00;;;;;;;;5032128;28;45511;-65
2022/05/18 00:48:20;;;;;;;;;7.00;6.00;;;;;;;;5030407;28;45457;-65
2022/05/18 00:50:46;;;;;;;;;7.25;7.25;;;;;;;;5033527;28;45543;-65
2022/05/18 00:53:20;;;;;;;;;6.75;6.75;;;;;;;;5031760;28;45802;-66
2022/05/18 00:55:51;;;;;;;;;7.00;6.00;;;;;;;;5032033;28;45603;-65
2022/05/18 00:58:16;;;;;;;;;5.25;5.25;;;;;;;;5032121;28;45619;-65
2022/05/18 01:00:41;;;;;;;;;6.50;5.00;;;;;;;;5032186;28;45312;-65
2022/05/18 01:03:13;;;;;;;;;6.50;6.50;;;;;;;;5032921;28;46291;-66
2022/05/18 01:05:40;;;;;;;;;7.50;6.50;;;;;;;;5027214;28;45444;-66
2022/05/18 01:08:05;;;;;;;;;6.50;6.50;;;;;;;;5029695;28;45416;-65
2022/05/18 01:10:30;;;;;;;;;6.00;6.00;;;;;;;;5031836;28;45338;-65
2022/05/18 01:12:56;;;;;;;;;5.25;5.25;;;;;;;;5029109;28;47769;-65
2022/05/18 01:15:22;;;;;;;;;7.75;7.00;;;;;;;;5031374;28;45501;-65
2022/05/18 01:17:49;;;;;;;;;4.75;4.75;;;;;;;;5033057;28;45533;-66
2022/05/18 01:20:17;;;;;;;;;5.00;5.00;;;;;;;;5020541;28;45811;-66
2022/05/18 01:23:06;;;;;;;;;4.00;4.00;;;;;;;;5025170;28;45757;-67
2022/05/18 01:25:32;;;;;;;;;6.00;5.00;;;;;;;;5030191;28;45516;-65
2022/05/18 01:27:58;;;;;;;;;7.00;7.00;;;;;;;;5023565;28;45551;-64
2022/05/18 01:30:24;;;;;;;;;5.00;4.75;;;;;;;;5023421;28;45469;-64
2022/05/18 01:32:50;;;;;;;;;5.00;5.00;;;;;;;;5027063;28;45659;-64
2022/05/18 01:35:18;;;;;;;;;5.75;5.75;;;;;;;;5029475;28;45451;-64
2022/05/18 01:37:43;;;;;;;;;9.25;6.50;;;;;;;;5030419;28;45424;-65
2022/05/18 01:40:16;;;;;;;;;8.00;6.75;;;;;;;;5029399;28;45384;-64
2022/05/18 01:42:46;;;;;;;;;5.25;5.25;;;;;;;;5026530;28;47398;-65
2022/05/18 01:45:11;;;;;;;;;6.25;6.25;;;;;;;;5025537;28;45551;-64
2022/05/18 01:47:37;;;;;;;;;5.25;5.25;;;;;;;;5023863;28;45390;-65
2022/05/18 01:50:05;;;;;;;;;8.75;6.00;;;;;;;;5018417;28;45750;-65
2022/05/18 01:52:32;;;;;;;;;6.00;6.00;;;;;;;;5032416;28;45496;-65
2022/05/18 01:54:57;;;;;;;;;9.75;6.00;;;;;;;;5029426;28;45389;-64
2022/05/18 01:57:23;;;;;;;;;6.50;5.00;;;;;;;;5030627;28;45528;-65
2022/05/18 01:59:48;;;;;;;;;6.25;5.00;;;;;;;;5029225;28;45438;-65
2022/05/18 02:02:14;;;;;;;;;7.50;6.00;;;;;;;;5029746;28;46772;-65
2022/05/18 02:04:40;;;;;;;;;6.75;6.75;;;;;;;;5031439;28;46050;-66
2022/05/18 02:07:05;;;;;;;;;6.00;5.25;;;;;;;;5032215;28;45527;-66
2022/05/18 02:09:30;;;;;;;;;7.00;7.00;;;;;;;;5022871;28;45496;-66
2022/05/18 02:11:56;;;;;;;;;5.50;5.50;;;;;;;;5025071;28;45374;-66
2022/05/18 02:14:21;;;;;;;;;4.75;4.75;;;;;;;;5028196;28;45472;-66
2022/05/18 02:16:47;;;;;;;;;5.00;5.00;;;;;;;;5026845;28;45896;-66
2022/05/18 02:19:12;;;;;;;;;6.00;5.00;;;;;;;;5027192;28;45492;-65
2022/05/18 02:21:37;;;;;;;;;4.50;4.50;;;;;;;;5019229;28;45677;-66
2022/05/18 02:24:02;;;;;;;;;5.00;4.25;;;;;;;;5035233;28;45644;-66
2022/05/18 02:26:28;;;;;;;;;7.00;4.75;;;;;;;;5027679;28;45529;-66
2022/05/18 02:28:53;;;;;;;;;4.50;4.50;;;;;;;;5018340;28;45380;-66
2022/05/18 02:31:18;;;;;;;;;3.50;3.50;;;;;;;;5017161;28;45484;-66
2022/05/18 02:33:43;;;;;;;;;5.00;5.00;;;;;;;;5029841;28;45903;-65
2022/05/18 02:36:10;;;;;;;;;3.00;3.00;;;;;;;;5027325;28;45475;-67
2022/05/18 02:38:36;;;;;;;;;5.00;4.75;;;;;;;;5017339;28;45701;-66
2022/05/18 02:41:02;;;;;;;;;3.50;3.50;;;;;;;;5019992;28;45441;-66
2022/05/18 02:43:27;;;;;;;;;3.00;3.00;;;;;;;;5031607;28;45585;-65
2022/05/18 02:46:01;;;;;;;;;4.00;4.00;;;;;;;;5016784;28;45551;-65
2022/05/18 02:48:27;;;;;;;;;4.00;4.00;;;;;;;;5033595;28;45457;-64
2022/05/18 02:50:52;;;;;;;;;5.75;4.50;;;;;;;;5031101;28;46837;-64
2022/05/18 02:53:17;;;;;;;;;3.00;3.00;;;;;;;;5043196;28;45401;-64
2022/05/18 02:58:26;;;;;;;;;4.50;4.50;;;;;;;;5029747;28;45397;-65
2022/05/18 03:00:52;;;;;;;;;4.50;4.50;;;;;;;;5030181;28;46341;-64
2022/05/18 03:03:17;;;;;;;;;3.50;3.50;;;;;;;;5032900;28;45369;-64
2022/05/18 03:05:42;;;;;;;;;5.25;4.75;;;;;;;;5031510;28;45381;-64
2022/05/18 03:08:07;;;;;;;;;5.75;5.00;;;;;;;;5027864;28;45420;-64
2022/05/18 03:10:32;;;;;;;;;4.75;4.25;;;;;;;;5042943;28;47373;-64
2022/05/18 03:12:58;;;;;;;;;3.00;3.00;;;;;;;;5029788;28;45370;-64
2022/05/18 03:15:23;;;;;;;;;4.00;3.00;;;;;;;;5031785;28;45411;-65
2022/05/18 03:17:48;;;;;;;;;1.00;1.00;;;;;;;;5026444;28;45387;-65
2022/05/18 03:23:33;;;;;;;;;1.00;1.00;;;;;;;;5020899;28;49254;-64
2022/05/18 03:25:42;;;;;;;;;1.75;1.75;;;;;;;;5027113;28;45382;-65
2022/05/18 03:28:08;;;;;;;;;2.00;2.00;;;;;;;;5023380;28;46901;-65
2022/05/18 03:30:33;;;;;;;;;2.00;1.75;;;;;;;;5033298;28;45806;-65
2022/05/18 03:32:58;;;;;;;;;2.00;2.00;;;;;;;;5034991;28;45495;-65
2022/05/18 03:35:23;;;;;;;;;3.00;1.50;;;;;;;;5032589;28;45440;-65
2022/05/18 03:37:48;;;;;;;;;5.00;3.75;;;;;;;;5028863;28;45994;-65
2022/05/18 03:40:13;;;;;;;;;3.50;3.50;;;;;;;;5022422;28;46521;-65
2022/05/18 03:42:39;;;;;;;;;4.50;3.50;;;;;;;;5033316;28;45616;-65
2022/05/18 03:45:04;;;;;;;;;4.00;2.75;;;;;;;;5047590;28;45823;-65
2022/05/18 03:47:30;;;;;;;;;2.25;2.00;;;;;;;;5030556;28;45373;-65
2022/05/18 03:49:55;;;;;;;;;4.50;3.00;;;;;;;;5023225;28;48568;-65
2022/05/18 03:52:20;;;;;;;;;2.75;2.75;;;;;;;;5040137;28;45475;-65
2022/05/18 03:54:45;;;;;;;;;3.50;2.50;;;;;;;;5033364;28;45675;-65
2022/05/18 03:57:11;;;;;;;;;1.00;1.00;;;;;;;;5030845;28;45699;-64
2022/05/18 03:59:36;;;;;;;;;3.00;3.00;;;;;;;;5030107;28;48573;-65
2022/05/18 04:02:01;;;;;;;;;2.00;2.00;;;;;;;;5028616;28;45500;-64
2022/05/18 04:04:26;;;;;;;;;4.00;2.00;;;;;;;;5032859;28;45408;-65
2022/05/18 04:06:51;;;;;;;;;1.75;1.75;;;;;;;;5031756;28;45417;-64
2022/05/18 04:09:17;;;;;;;;;0.25;0.25;;;;;;;;5030722;28;47389;-66
2022/05/18 04:11:42;;;;;;;;;1.25;1.25;;;;;;;;5034991;28;45384;-65
2022/05/18 04:14:07;;;;;;;;;0.50;0.50;;;;;;;;5031773;28;45516;-65
2022/05/18 04:16:34;;;;;;;;;2.00;0.75;;;;;;;;5032896;28;45267;-65
2022/05/18 04:19:00;;;;;;;;;1.00;1.00;;;;;;;;5031575;28;47854;-64
2022/05/18 04:21:26;;;;;;;;;0.00;0.00;;;;;;;;5032581;28;45540;-65
2022/05/18 04:23:52;;;;;;;;;1.00;1.00;;;;;;;;5034813;28;45376;-65
2022/05/18 04:26:17;;;;;;;;;3.00;2.00;;;;;;;;5026515;28;45527;-66
2022/05/18 04:28:43;;;;;;;;;0.75;0.75;;;;;;;;5025556;28;45745;-65
2022/05/18 04:31:08;;;;;;;;;2.00;2.00;;;;;;;;5031044;28;48030;-65
2022/05/18 04:33:33;;;;;;;;;1.00;1.00;;;;;;;;5031512;28;45608;-64
2022/05/18 04:36:02;;;;;;;;;1.25;1.25;;;;;;;;5033967;28;45666;-65
2022/05/18 04:38:27;;;;;;;;;1.00;0.75;;;;;;;;5032896;28;45879;-66
2022/05/18 04:40:52;;;;;;;;;1.00;1.00;;;;;;;;5030743;28;45501;-65
2022/05/18 04:43:20;;;;;;;;;0.50;0.50;;;;;;;;5030963;28;45407;-66
2022/05/18 04:45:45;;;;;;;;;0.75;0.75;;;;;;;;5031205;28;45557;-65
2022/05/18 04:48:12;;;;;;;;;1.00;1.00;;;;;;;;5032474;28;45675;-65
2022/05/18 04:50:37;;;;;;;;;1.00;1.00;;;;;;;;5028611;28;46414;-65
2022/05/18 04:53:02;;;;;;;;;1.00;1.00;;;;;;;;5030756;28;45689;-65
2022/05/18 04:55:28;;;;;;;;;1.00;1.00;;;;;;;;5032273;28;45469;-65
2022/05/18 04:57:53;;;;;;;;;0.75;0.75;;;;;;;;5032159;28;45706;-65
2022/05/18 05:00:18;;;;;;;;;1.00;1.00;;;;;;;;5032186;28;45457;-65
2022/05/18 05:02:43;;;;;;;;;1.50;1.50;;;;;;;;5034403;28;45381;-66
2022/05/18 05:05:14;;;;;;;;;0.33;0.33;;;;;;;;5030719;28;45521;-67
2022/05/18 05:07:39;;;;;;;;;1.33;0.00;;;;;;;;5031770;28;45344;-65
2022/05/18 05:10:07;;;;;;;;;1.00;1.00;;;;;;;;5031880;28;45484;-66
2022/05/18 05:12:33;;;;;;;;;0.00;0.00;;;;;;;;5032162;28;45607;-66
2022/05/18 05:14:58;;;;;;;;;0.00;0.00;;;;;;;;5033930;28;45414;-66
2022/05/18 05:17:23;;;;;;;;;0.75;0.75;;;;;;;;5030466;28;45395;-66
2022/05/18 05:19:48;;;;;;;;;1.00;1.00;;;;;;;;5031740;28;45529;-66
2022/05/18 05:22:14;;;;;;;;;1.00;1.00;;;;;;;;5032055;28;45566;-66
2022/05/18 05:24:39;;;;;;;;;1.25;1.25;;;;;;;;5030793;28;45708;-67
2022/05/18 05:27:04;;;;;;;;;2.25;1.00;;;;;;;;5034692;28;46333;-67
2022/05/18 05:29:29;;;;;;;;;1.00;1.00;;;;;;;;5034090;28;45483;-67
2022/05/18 05:31:54;;;;;;;;;1.00;0.25;;;;;;;;5024791;28;45500;-68
2022/05/18 05:34:20;;;;;;;;;1.75;0.00;;;;;;;;5027887;28;45461;-67
2022/05/18 05:36:45;;;;;;;;;1.00;0.50;;;;;;;;5032534;28;48764;-67
2022/05/18 05:39:11;;;;;;;;;1.50;1.50;;;;;;;;5024230;28;45660;-66
2022/05/18 05:41:36;;;;;;;;;1.00;1.00;;;;;;;;5029895;28;45386;-67
2022/05/18 05:44:02;;;;;;;;;0.00;0.00;;;;;;;;5033641;28;45385;-67
2022/05/18 05:46:27;;;;;;;;;1.00;1.00;;;;;;;;5025254;28;47824;-67
2022/05/18 05:48:53;;;;;;;;;2.00;2.00;;;;;;;;5022130;28;45547;-66
2022/05/18 05:51:19;;;;;;;;;2.00;2.00;;;;;;;;5022704;28;45457;-66
2022/05/18 05:53:45;;;;;;;;;2.00;2.00;;;;;;;;5022919;28;45513;-67
2022/05/18 05:56:11;;;;;;;;;1.25;1.25;;;;;;;;5018166;28;46601;-67
2022/05/18 05:58:38;;;;;;;;;1.00;1.00;;;;;;;;5047192;28;45404;-67
2022/05/18 06:01:04;;;;;;;;;1.75;0.50;;;;;;;;5021759;28;45391;-65
2022/05/18 06:03:30;;;;;;;;;2.50;2.00;;;;;;;;5027372;28;45870;-65
2022/05/18 06:05:56;;;;;;;;;2.75;1.50;;;;;;;;5030052;28;46652;-65
2022/05/18 06:08:21;;;;;;;;;1.00;1.00;;;;;;;;5031820;28;45615;-65
2022/05/18 06:10:47;;;;;;;;;1.00;1.00;;;;;;;;5032387;28;45589;-65
2022/05/18 06:13:12;;;;;;;;;1.00;1.00;;;;;;;;5032070;28;45492;-65
2022/05/18 06:15:38;;;;;;;;;2.50;2.50;;;;;;;;5030055;28;46369;-65
2022/05/18 06:18:03;;;;;;;;;1.25;1.25;;;;;;;;5043891;28;45417;-65
2022/05/18 06:20:29;;;;;;;;;1.50;1.50;;;;;;;;5031120;28;45382;-66
2022/05/18 06:22:54;;;;;;;;;2.00;2.00;;;;;;;;5032514;28;45422;-63
2022/05/18 06:25:20;;;;;;;;;1.75;1.75;;;;;;;;5039127;28;47465;-66
2022/05/18 06:27:45;;;;;;;;;1.00;0.67;;;;;;;;5034223;28;45673;-65
2022/05/18 06:30:12;;;;;;;;;2.50;1.75;;;;;;;;5030005;28;45476;-65
2022/05/18 06:32:37;;;;;;;;;0.50;0.00;;;;;;;;5022324;28;45436;-65
2022/05/18 06:35:05;;;;;;;;;2.00;2.00;;;;;;;;5034039;28;46894;-65
2022/05/18 06:37:30;;;;;;;;;2.00;1.00;;;;;;;;5030813;28;45373;-65
2022/05/18 06:39:55;;;;;;;;;0.75;0.75;;;;;;;;5034804;28;45370;-65
2022/05/18 06:42:21;;;;;;;;;0.25;0.25;;;;;;;;5029621;28;45522;-65
2022/05/18 06:44:46;;;;;;;;;2.00;1.00;;;;;;;;5023454;28;45763;-66
2022/05/18 06:47:12;;;;;;;;;2.75;1.75;;;;;;;;5033789;28;45484;-65
2022/05/18 06:49:37;;;;;;;;;1.00;1.00;;;;;;;;5032182;28;45627;-65
2022/05/18 06:52:03;;;;;;;;;2.00;0.50;;;;;;;;5035360;28;45567;-65
2022/05/18 06:54:28;;;;;;;;;1.67;0.67;;;;;;;;5033770;28;46847;-65
2022/05/18 06:56:54;;;;;;;;;0.33;0.33;;;;;;;;5033919;28;45576;-65
2022/05/18 06:59:19;;;;;;;;;1.00;1.00;;;;;;;;5032938;28;45351;-66
2022/05/18 07:01:44;;;;;;;;;0.00;0.00;;;;;;;;5034165;28;45395;-66
2022/05/18 07:04:10;;;;;;;;;1.00;1.00;;;;;;;;5037595;28;46327;-65
2022/05/18 07:06:40;;;;;;;;;1.00;1.00;;;;;;;;5034320;28;45841;-65
2022/05/18 07:09:07;;;;;;;;;0.00;0.00;;;;;;;;5033961;28;45551;-65
2022/05/18 07:11:36;;;;;;;;;1.33;0.00;;;;;;;;5049205;28;45687;-65
2022/05/18 07:14:01;;;;;;;;;1.00;1.00;;;;;;;;5033416;28;46532;-65
2022/05/18 07:16:27;;;;;;;;;0.00;0.00;;;;;;;;5034368;28;45436;-66
2022/05/18 07:18:52;;;;;;;;;1.00;0.00;;;;;;;;5032234;28;45667;-65
2022/05/18 07:21:19;;;;;;;;;0.00;0.00;;;;;;;;5033329;28;45771;-66
2022/05/18 07:23:45;;;;;;;;;0.00;0.00;;;;;;;;5033455;28;45740;-66
2022/05/18 07:26:11;;;;;;;;;1.00;1.00;;;;;;;;5033430;28;45549;-65
2022/05/18 07:28:36;;;;;;;;;1.00;1.00;;;;;;;;5034826;28;45629;-66
2022/05/18 07:31:02;;;;;;;;;2.00;2.00;;;;;;;;5034547;28;45472;-66
2022/05/18 07:33:27;;;;;;;;;0.33;0.33;;;;;;;;5032996;28;46794;-66
2022/05/18 07:35:53;;;;;;;;;2.25;0.50;;;;;;;;5033256;28;45348;-67
2022/05/18 07:38:20;;;;;;;;;1.00;1.00;;;;;;;;5030766;28;45404;-66
2022/05/18 07:40:46;;;;;;;;;1.75;0.00;;;;;;;;5032312;28;45365;-67
2022/05/18 07:43:11;;;;;;;;;0.25;0.25;;;;;;;;5033192;28;45625;-67
2022/05/18 07:45:36;;;;;;;;;0.75;0.75;;;;;;;;5032966;28;45456;-65
2022/05/18 07:48:02;;;;;;;;;0.50;0.50;;;;;;;;5033016;28;45421;-66
2022/05/18 07:50:27;;;;;;;;;0.75;0.75;;;;;;;;5033201;28;45567;-66
2022/05/18 07:52:58;;;;;;;;;9.25;9.25;;;;;;;;5032921;28;46498;-65
2022/05/18 07:55:24;;;;;;;;;3.00;1.67;;;;;;;;5034481;28;45524;-65
2022/05/18 07:57:49;;;;;;;;;1.00;1.00;;;;;;;;5028427;28;45607;-66
2022/05/18 08:00:15;;;;;;;;;1.25;1.25;;;;;;;;5025090;28;45438;-65
2022/05/18 08:02:40;;;;;;;;;1.00;1.00;;;;;;;;5031992;28;45508;-65
2022/05/18 08:05:06;;;;;;;;;0.00;0.00;;;;;;;;5031498;28;45544;-65
2022/05/18 08:07:31;;;;;;;;;1.00;1.00;;;;;;;;5034298;28;45350;-66
2022/05/18 08:15:24;;;;;;;;;2.00;2.00;;;;;;;;5032655;28;45620;-66
2022/05/18 08:17:50;;;;;;;;;1.00;1.00;;;;;;;;5030864;28;45299;-66
2022/05/18 08:20:17;;;;;;;;;1.75;1.75;;;;;;;;5031087;28;45489;-66
2022/05/18 08:22:42;;;;;;;;;1.00;1.00;;;;;;;;5032515;28;46465;-67
2022/05/18 08:25:09;;;;;;;;;1.00;1.00;;;;;;;;5034163;28;45384;-66
2022/05/18 08:27:35;;;;;;;;;1.00;1.00;;;;;;;;5032650;28;45549;-66
2022/05/18 08:30:01;;;;;;;;;1.00;1.00;;;;;;;;5030154;28;45528;-66
2022/05/18 08:32:26;;;;;;;;;1.00;1.00;;;;;;;;5028279;28;45841;-65
2022/05/18 08:34:51;;;;;;;;;1.00;1.00;;;;;;;;5032462;28;45384;-66
2022/05/18 08:37:16;;;;;;;;;2.00;1.00;;;;;;;;5033259;28;45323;-66
2022/05/18 08:39:42;;;;;;;;;1.00;1.00;;;;;;;;5030967;28;45649;-66
2022/05/18 08:42:08;;;;;;;;;1.00;1.00;;;;;;;;5044563;28;48337;-66
2022/05/18 08:44:35;;;;;;;;;1.33;1.33;;;;;;;;5019955;28;45677;-66
2022/05/18 08:47:00;;;;;;;;;1.00;1.00;;;;;;;;5032876;28;45511;-66
2022/05/18 08:49:40;;;;;;;;;1.67;1.00;;;;;;;;5029863;28;45418;-66
2022/05/18 08:52:06;;;;;;;;;1.00;1.00;;;;;;;;5030027;28;48531;-66
2022/05/18 08:54:49;;;;;;;;;2.75;2.75;;;;;;;;5044000;28;46155;-67
2022/05/18 08:57:17;;;;;;;;;1.50;1.50;;;;;;;;5051595;28;45522;-65
2022/05/18 08:59:44;;;;;;;;;0.00;0.00;;;;;;;;5020291;28;45436;-65
2022/05/18 09:02:15;;;;;;;;;2.00;2.00;;;;;;;;5031821;28;46871;-64
2022/05/18 09:04:51;;;;;;;;;1.50;1.50;;;;;;;;5031998;28;45375;-65
2022/05/18 09:07:19;;;;;;;;;2.50;2.00;;;;;;;;5033165;28;45432;-65
2022/05/18 09:12:31;;;;;;;;;2.50;2.25;;;;;;;;5031589;28;45723;-65
2022/05/18 09:14:56;;;;;;;;;1.00;1.00;;;;;;;;5031946;28;45645;-65
2022/05/18 09:17:23;;;;;;;;;1.25;1.25;;;;;;;;5047420;28;45720;-65
2022/05/18 09:19:48;;;;;;;;;1.75;1.75;;;;;;;;5030012;28;45564;-65
2022/05/18 09:22:42;;;;;;;;;1.75;1.75;;;;;;;;5033492;28;45728;-65
2022/05/18 09:25:26;;;;;;;;;1.00;1.00;;;;;;;;4991265;28;45638;-65
2022/05/18 09:28:10;;;;;;;;;3.00;3.00;;;;;;;;4989784;28;45600;-66
2022/05/18 09:30:38;;;;;;;;;2.00;0.75;;;;;;;;4989778;28;45441;-66
2022/05/18 09:33:11;;;;;;;;;1.75;1.75;;;;;;;;4989817;28;45713;-66
2022/05/18 09:35:45;;;;;;;;;1.00;1.00;;;;;;;;4972870;28;45802;-66
2022/05/18 09:38:15;;;;;;;;;2.00;1.00;;;;;;;;4973573;28;45554;-65
2022/05/18 09:40:45;;;;;;;;;2.00;2.00;;;;;;;;4990421;28;45401;-66
2022/05/18 09:43:28;;;;;;;;;2.25;1.00;;;;;;;;4989438;28;46464;-67
2022/05/18 09:45:55;;;;;;;;;3.75;3.00;;;;;;;;4973055;28;45470;-66
2022/05/18 09:48:26;;;;;;;;;3.50;2.00;;;;;;;;4973066;28;45501;-65
2022/05/18 09:50:52;;;;;;;;;2.25;2.00;;;;;;;;4989603;28;45425;-66
2022/05/18 09:53:18;;;;;;;;;3.00;1.75;;;;;;;;4971520;28;46341;-66
2022/05/18 09:55:47;;;;;;;;;1.00;1.00;;;;;;;;4990157;28;45616;-66
2022/05/18 09:58:15;;;;;;;;;2.00;2.00;;;;;;;;4989698;28;45765;-66
2022/05/18 10:00:41;;;;;;;;;3.75;3.00;;;;;;;;4992268;28;45526;-66
2022/05/18 10:08:57;;;;;;;;;2.00;2.00;;;;;;;;5031172;28;45536;-66
2022/05/18 10:11:29;;;;;;;;;2.00;2.00;;;;;;;;5031532;28;45508;-65
2022/05/18 10:13:58;;;;;;;;;1.75;1.75;;;;;;;;5033801;28;46330;-65
2022/05/18 10:16:33;;;;;;;;;1.00;1.00;;;;;;;;5036306;28;45565;-66
2022/05/18 10:18:59;;;;;;;;;4.75;2.00;;;;;;;;5034060;28;45413;-66
2022/05/18 10:21:35;;;;;;;;;1.50;1.00;;;;;;;;5034132;28;45315;-66
2022/05/18 10:24:01;;;;;;;;;2.25;1.50;;;;;;;;5032774;28;46455;-66
2022/05/18 10:26:29;;;;;;;;;2.00;2.00;;;;;;;;5032734;28;45284;-66
2022/05/18 10:28:56;;;;;;;;;2.75;2.00;;;;;;;;5032099;28;45432;-67
2022/05/18 10:31:30;;;;;;;;;1.25;1.25;;;;;;;;5035700;28;45379;-66
2022/05/18 10:34:14;;;;;;;;;0.00;0.00;;;;;;;;5032159;28;46474;-65
2022/05/18 10:36:48;;;;;;;;;2.00;2.00;;;;;;;;5032368;28;45398;-66
2022/05/18 10:39:27;;;;;;;;;3.00;2.00;;;;;;;;5033972;28;45369;-65
2022/05/18 10:41:52;;;;;;;;;1.00;1.00;;;;;;;;5033978;28;45592;-65
2022/05/18 10:44:21;;;;;;;;;2.50;2.50;;;;;;;;5034049;28;46457;-66
2022/05/18 10:46:48;;;;;;;;;1.25;1.25;;;;;;;;5030618;28;45559;-67
2022/05/18 10:49:32;;;;;;;;;5.00;5.00;;;;;;;;5042837;28;46400;-66
2022/05/18 10:52:12;;;;;;;;;2.25;2.25;;;;;;;;5028302;28;45423;-66
2022/05/18 10:54:37;;;;;;;;;2.00;2.00;;;;;;;;5033706;28;47502;-65
2022/05/18 10:57:11;;;;;;;;;1.25;1.25;;;;;;;;5031762;28;45420;-66
2022/05/18 10:59:43;;;;;;;;;2.00;2.00;;;;;;;;5033407;28;45413;-66
2022/05/18 11:02:09;;;;;;;;;2.75;2.75;;;;;;;;5050413;28;45507;-66
2022/05/18 11:04:44;;;;;;;;;2.25;2.25;;;;;;;;5030315;28;45542;-66
2022/05/18 11:07:09;;;;;;;;;1.50;1.50;;;;;;;;5042456;28;45438;-65
2022/05/18 11:09:42;;;;;;;;;1.00;1.00;;;;;;;;5029695;28;45475;-66
2022/05/18 11:12:16;;;;;;;;;1.75;1.75;;;;;;;;5040380;28;45618;-65
2022/05/18 11:14:41;;;;;;;;;2.00;2.00;;;;;;;;5045829;28;47967;-68
2022/05/18 11:17:25;;;;;;;;;1.50;1.50;;;;;;;;5030602;28;46354;-68
2022/05/18 11:20:05;;;;;;;;;2.00;2.00;;;;;;;;5032756;28;45570;-76
2022/05/18 11:22:37;;;;;;;;;2.00;2.00;;;;;;;;5029926;28;45580;-66
2022/05/18 11:25:18;;;;;;;;;5.25;3.25;;;;;;;;5033897;28;48841;-66
2022/05/18 11:27:46;;;;;;;;;2.75;2.00;;;;;;;;5032265;28;45366;-75
2022/05/18 11:30:17;;;;;;;;;3.00;3.00;;;;;;;;5032125;28;45535;-68
2022/05/18 11:33:00;;;;;;;;;1.75;1.75;;;;;;;;5031709;28;45669;-67
2022/05/18 11:35:32;;;;;;;;;3.00;2.25;;;;;;;;5033853;28;48941;-65
2022/05/18 11:38:12;;;;;;;;;1.75;1.75;;;;;;;;5038446;28;45605;-67
2022/05/18 11:40:40;;;;;;;;;2.00;2.00;;;;;;;;5035335;28;45417;-66
2022/05/18 11:43:28;;;;;;;;;2.00;2.00;;;;;;;;5039286;28;45524;-67
2022/05/18 11:46:11;;;;;;;;;1.50;1.50;;;;;;;;5034811;28;45858;-67
2022/05/18 11:48:52;;;;;;;;;2.25;2.25;;;;;;;;5035393;28;46557;-67
2022/05/18 11:51:17;;;;;;;;;2.50;2.00;;;;;;;;5028508;28;45822;-67
2022/05/18 11:54:01;;;;;;;;;1.50;1.50;;;;;;;;5034073;28;45746;-67
2022/05/18 11:56:30;;;;;;;;;2.00;2.00;;;;;;;;5043872;28;47749;-67
2022/05/18 11:59:22;;;;;;;;;3.00;2.00;;;;;;;;5034990;28;45502;-67
2022/05/18 12:01:54;;;;;;;;;3.00;2.00;;;;;;;;5041447;28;45520;-66
2022/05/18 12:04:22;;;;;;;;;2.00;2.00;;;;;;;;5038938;28;45418;-66
2022/05/18 12:06:47;;;;;;;;;3.00;2.00;;;;;;;;5037175;28;46497;-66
2022/05/18 12:09:12;;;;;;;;;3.75;2.00;;;;;;;;5039908;28;45543;-66
2022/05/18 12:11:50;;;;;;;;;2.00;2.00;;;;;;;;5031209;28;45469;-66
2022/05/18 12:14:15;;;;;;;;;1.50;1.50;;;;;;;;5043522;28;45448;-66
2022/05/18 12:16:48;;;;;;;;;2.50;2.50;;;;;;;;5038392;28;46400;-65
2022/05/18 12:19:26;;;;;;;;;2.25;1.00;;;;;;;;5042035;28;45510;-66
2022/05/18 12:22:11;;;;;;;;;1.75;1.75;;;;;;;;5034400;28;45600;-65
2022/05/18 12:24:38;;;;;;;;;2.00;2.00;;;;;;;;5026845;28;45791;-66
2022/05/18 12:27:04;;;;;;;;;2.00;2.00;;;;;;;;5041043;28;45776;-66
2022/05/18 12:29:30;;;;;;;;;2.50;2.50;;;;;;;;5029688;28;46149;-66
2022/05/18 12:31:56;;;;;;;;;2.00;2.00;;;;;;;;5042666;28;45388;-66
2022/05/18 12:34:21;;;;;;;;;1.00;1.00;;;;;;;;5037123;28;45388;-66
2022/05/18 12:36:55;;;;;;;;;0.75;0.75;;;;;;;;5036706;28;46725;-67
2022/05/18 12:39:32;;;;;;;;;3.00;3.00;;;;;;;;5038473;28;45475;-67
2022/05/18 12:41:58;;;;;;;;;2.25;1.00;;;;;;;;5027715;28;45437;-66
2022/05/18 12:44:43;;;;;;;;;1.00;1.00;;;;;;;;5029358;28;45369;-67
2022/05/18 12:47:18;;;;;;;;;2.00;2.00;;;;;;;;5031084;28;46405;-67
2022/05/18 12:49:44;;;;;;;;;2.75;1.00;;;;;;;;5031392;28;45542;-67
2022/05/18 12:52:28;;;;;;;;;2.00;2.00;;;;;;;;5031837;28;45369;-67
2022/05/18 12:54:55;;;;;;;;;1.00;1.00;;;;;;;;5032254;28;45620;-67
2022/05/18 12:57:40;;;;;;;;;2.00;2.00;;;;;;;;5031952;28;45484;-67
2022/05/18 13:00:12;;;;;;;;;1.00;1.00;;;;;;;;5031669;28;45388;-66
2022/05/18 13:02:42;;;;;;;;;2.25;1.00;;;;;;;;5032110;28;45357;-66
2022/05/18 13:05:31;;;;;;;;;1.00;1.00;;;;;;;;5030764;28;45638;-66
2022/05/18 13:08:19;;;;;;;;;1.00;1.00;;;;;;;;5025131;28;45818;-67
2022/05/18 13:11:20;;;;;;;;;2.50;1.25;;;;;;;;4916390;28;45369;-67
2022/05/18 13:14:00;;;;;;;;;0.00;0.00;;;;;;;;4891239;29;45686;-67
2022/05/18 13:16:38;;;;;;;;;1.00;1.00;;;;;;;;4880697;29;45534;-67
2022/05/18 13:19:23;;;;;;;;;1.00;1.00;;;;;;;;4879498;29;46313;-66
2022/05/18 13:21:53;;;;;;;;;1.00;1.00;;;;;;;;4878906;29;45550;-67
2022/05/18 13:24:20;;;;;;;;;1.00;1.00;;;;;;;;4879989;29;45398;-67
2022/05/18 13:26:47;;;;;;;;;3.00;3.00;;;;;;;;4879479;29;45497;-68
2022/05/18 13:29:20;;;;;;;;;1.50;1.50;;;;;;;;4876853;29;45465;-66
2022/05/18 13:31:47;;;;;;;;;2.00;2.00;;;;;;;;4876934;29;46626;-68
2022/05/18 13:34:14;;;;;;;;;2.00;2.00;;;;;;;;4880272;29;45590;-67
2022/05/18 13:36:48;;;;;;;;;2.75;1.00;;;;;;;;4879737;29;45751;-67
2022/05/18 13:39:18;;;;;;;;;1.00;1.00;;;;;;;;4879296;29;47567;-68
2022/05/18 13:41:45;;;;;;;;;1.00;1.00;;;;;;;;4879616;29;45451;-67
2022/05/18 13:44:10;;;;;;;;;1.00;1.00;;;;;;;;4877027;29;45544;-67
2022/05/18 13:46:36;;;;;;;;;1.00;1.00;;;;;;;;4866597;28;45455;-67
2022/05/18 13:49:05;;;;;;;;;2.00;2.00;;;;;;;;5035761;28;46474;-67
2022/05/18 13:51:33;;;;;;;;;1.00;1.00;;;;;;;;5046811;28;46154;-67
2022/05/18 13:54:00;;;;;;;;;1.25;1.25;;;;;;;;5028196;28;45633;-67
2022/05/18 13:56:27;;;;;;;;;3.00;2.00;;;;;;;;5033427;28;45448;-67
2022/05/18 13:58:56;;;;;;;;;0.00;0.00;;;;;;;;5034498;28;45588;-67
2022/05/18 14:01:27;;;;;;;;;1.00;1.00;;;;;;;;5036947;28;45395;-66
2022/05/18 14:03:54;;;;;;;;;1.00;1.00;;;;;;;;5034587;28;45399;-67
2022/05/18 14:06:21;;;;;;;;;1.00;1.00;;;;;;;;5034948;28;45292;-66
2022/05/18 14:08:52;;;;;;;;;0.50;0.50;;;;;;;;5033036;28;46621;-66
2022/05/18 14:11:18;;;;;;;;;1.00;1.00;;;;;;;;5034488;28;45575;-66
2022/05/18 14:13:45;;;;;;;;;2.00;2.00;;;;;;;;5035200;28;45484;-67
2022/05/18 14:16:25;;;;;;;;;2.00;2.00;;;;;;;;5034587;28;45433;-66
2022/05/18 14:18:52;;;;;;;;;1.50;1.50;;;;;;;;5034280;28;45481;-67
2022/05/18 14:21:18;;;;;;;;;1.00;1.00;;;;;;;;5034068;28;45390;-67
2022/05/18 14:23:49;;;;;;;;;1.00;1.00;;;;;;;;5034464;28;45468;-67
2022/05/18 14:26:16;;;;;;;;;2.50;1.25;;;;;;;;5034981;28;45650;-66
2022/05/18 14:28:43;;;;;;;;;0.75;0.75;;;;;;;;5035000;28;45711;-66
2022/05/18 14:31:09;;;;;;;;;1.00;1.00;;;;;;;;5035638;28;45424;-66
2022/05/18 14:33:35;;;;;;;;;1.00;1.00;;;;;;;;5034129;28;45374;-67
2022/05/18 14:36:05;;;;;;;;;1.25;1.25;;;;;;;;5034396;28;45349;-66
2022/05/18 14:38:33;;;;;;;;;1.00;1.00;;;;;;;;5034025;28;46667;-67
2022/05/18 14:41:00;;;;;;;;;1.00;1.00;;;;;;;;5034102;28;45560;-67
2022/05/18 14:43:29;;;;;;;;;0.25;0.25;;;;;;;;5035092;28;45740;-67
2022/05/18 14:46:02;;;;;;;;;1.00;1.00;;;;;;;;5032406;28;45538;-66
2022/05/18 14:48:29;;;;;;;;;1.50;1.00;;;;;;;;5032473;28;46408;-66
2022/05/18 14:51:12;;;;;;;;;1.00;1.00;;;;;;;;5033966;28;45417;-67
2022/05/18 14:53:41;;;;;;;;;1.00;1.00;;;;;;;;5034073;28;45512;-66
2022/05/18 14:56:09;;;;;;;;;2.25;0.50;;;;;;;;5032724;28;45717;-66
2022/05/18 14:58:43;;;;;;;;;0.00;0.00;;;;;;;;5034199;28;46732;-66
2022/05/18 15:01:24;;;;;;;;;1.00;1.00;;;;;;;;5048034;28;46383;-66
2022/05/18 15:03:50;;;;;;;;;2.00;1.00;;;;;;;;5031559;28;45503;-67
2022/05/18 15:06:15;;;;;;;;;0.00;0.00;;;;;;;;5029386;28;45560;-67
2022/05/18 15:08:48;;;;;;;;;0.75;0.75;;;;;;;;5021996;28;47393;-67
2022/05/18 15:11:15;;;;;;;;;3.25;1.00;;;;;;;;5033728;28;45596;-66